createdAt,value
2019-05-03T00:02:34.142Z,6.25
2019-05-03T00:07:42.046Z,6.28
2019-05-03T00:12:48.182Z,6.00
2019-05-03T00:17:54.356Z,6.15
2019-05-03T00:23:00.235Z,7.15
2019-05-03T00:28:06.212Z,7.00
2019-05-03T00:33:12.276Z,6.78
2019-05-03T00:38:18.476Z,7.90
2019-05-03T00:43:24.635Z,8.00
2019-05-03T00:48:32.489Z,8.90
2019-05-03T00:53:38.307Z,6.80
2019-05-03T00:58:52.955Z,6.85
2019-05-03T01:03:59.301Z,6.72
2019-05-03T01:09:08.537Z,6.13
2019-05-03T01:14:15.370Z,7.08
2019-05-03T01:19:22.727Z,6.37
2019-05-03T01:24:28.715Z,8.20
2019-05-03T01:29:34.802Z,6.53
2019-05-03T01:34:41.687Z,6.47
2019-05-03T01:39:47.966Z,9.73
2019-05-03T01:44:54.050Z,7.17
2019-05-03T01:50:12.153Z,7.83
2019-05-03T01:55:18.408Z,8.93
2019-05-03T02:00:26.642Z,7.35
2019-05-03T02:05:48.248Z,6.75
2019-05-03T02:10:54.328Z,7.03
2019-05-03T02:16:02.274Z,7.60
2019-05-03T02:21:08.417Z,8.00
2019-05-03T02:26:14.815Z,8.17
2019-05-03T02:31:23.246Z,8.50
2019-05-03T02:36:28.502Z,8.23
2019-05-03T02:41:34.466Z,8.57
2019-05-03T02:47:15.914Z,9.03
2019-05-03T02:52:37.958Z,10.40
2019-05-03T02:57:46.648Z,9.53
2019-05-03T03:02:52.126Z,8.30
2019-05-03T03:07:58.728Z,10.70
2019-05-03T03:13:06.287Z,9.47
2019-05-03T03:18:15.792Z,10.37
2019-05-03T03:23:26.199Z,13.97
2019-05-03T03:28:35.957Z,11.63
2019-05-03T03:33:41.189Z,14.37
2019-05-03T03:38:47.358Z,20.57
2019-05-03T03:43:55.868Z,14.23
2019-05-03T03:49:02.693Z,15.30
2019-05-03T03:54:10.161Z,13.70
2019-05-03T03:59:16.393Z,14.83
2019-05-03T04:04:25.760Z,10.50
2019-05-03T04:09:30.876Z,11.70
2019-05-03T04:14:45.368Z,11.00
2019-05-03T04:19:55.860Z,11.23
2019-05-03T04:25:01.201Z,12.20
2019-05-03T04:30:07.592Z,12.27
2019-05-03T04:35:16.462Z,12.67
2019-05-03T04:40:21.575Z,12.87
2019-05-03T04:45:27.650Z,13.63
2019-05-03T04:50:36.344Z,12.73
2019-05-03T04:55:41.385Z,13.40
2019-05-03T05:00:47.331Z,13.13
2019-05-03T05:05:55.512Z,11.47
2019-05-03T05:11:01.130Z,12.20
2019-05-03T05:16:07.280Z,11.73
2019-05-03T05:21:25.250Z,11.40
2019-05-03T05:26:39.219Z,11.90
2019-05-03T05:31:45.298Z,12.60
2019-05-03T05:36:51.287Z,13.07
2019-05-03T05:41:57.342Z,12.53
2019-05-03T05:47:16.278Z,12.83
2019-05-03T05:52:24.395Z,13.00
2019-05-03T05:57:37.846Z,13.77
2019-05-03T06:02:44.701Z,12.90
2019-05-03T06:08:09.628Z,14.17
2019-05-03T06:13:28.836Z,14.43
2019-05-03T06:18:54.293Z,15.73
2019-05-03T06:24:04.624Z,15.73
2019-05-03T06:29:12.425Z,17.33
2019-05-03T06:34:18.165Z,18.53
2019-05-03T06:39:24.898Z,15.70
2019-05-03T06:44:31.149Z,16.47
2019-05-03T06:49:39.181Z,15.87
2019-05-03T06:54:45.046Z,16.50
2019-05-03T06:59:56.413Z,17.80
2019-05-03T07:05:04.986Z,17.23
2019-05-03T07:10:29.191Z,17.90
2019-05-03T07:15:35.279Z,19.00
2019-05-03T07:20:47.794Z,18.57
2019-05-03T07:25:55.162Z,18.13
2019-05-03T07:31:01.317Z,17.70
2019-05-03T07:36:07.303Z,18.07
2019-05-03T07:41:14.926Z,17.03
2019-05-03T07:46:21.048Z,19.03
2019-05-03T07:51:27.110Z,19.13
2019-05-03T07:56:37.185Z,19.15
2019-05-03T08:01:46.821Z,19.10
2019-05-03T08:06:55.042Z,19.53
2019-05-03T08:12:01.295Z,20.20
2019-05-03T08:17:07.227Z,19.33
2019-05-03T08:22:14.961Z,19.77
2019-05-03T08:27:21.230Z,21.40
2019-05-03T08:32:45.289Z,18.07
2019-05-03T08:38:01.511Z,18.33
2019-05-03T08:43:07.702Z,19.57
2019-05-03T08:48:15.221Z,18.83
2019-05-03T08:53:21.414Z,19.27
2019-05-03T08:58:27.381Z,16.87
2019-05-03T09:03:36.289Z,16.63
2019-05-03T09:08:41.147Z,16.70
2019-05-03T09:13:55.777Z,16.23
2019-05-03T09:19:02.039Z,17.32
2019-05-03T09:24:09.640Z,16.10
2019-05-03T09:29:17.966Z,13.43
2019-05-03T09:34:25.705Z,17.07
2019-05-03T09:39:35.313Z,17.47
2019-05-03T09:44:41.433Z,18.53
2019-05-03T09:49:47.610Z,19.67
2019-05-03T09:54:55.257Z,19.93
2019-05-03T10:00:01.424Z,23.07
2019-05-03T10:05:07.968Z,21.23
2019-05-03T10:10:15.414Z,21.63
2019-05-03T10:15:41.758Z,21.13
2019-05-03T10:20:47.517Z,22.10
2019-05-03T10:25:55.212Z,22.90
2019-05-03T10:31:01.715Z,24.57
2019-05-03T10:36:07.895Z,23.57
2019-05-03T10:41:14.008Z,24.20
2019-05-03T10:46:20.039Z,23.50
2019-05-03T10:51:28.452Z,24.23
2019-05-03T10:56:49.131Z,23.10
2019-05-03T11:02:05.274Z,24.40
2019-05-03T11:07:11.321Z,23.00
2019-05-03T11:12:17.255Z,22.77
2019-05-03T11:17:25.497Z,21.62
2019-05-03T11:22:30.958Z,23.67
2019-05-03T11:27:51.627Z,23.73
2019-05-03T11:33:02.375Z,24.00
2019-05-03T11:38:34.995Z,24.57
2019-05-03T11:43:42.030Z,23.77
2019-05-03T11:48:48.237Z,22.32
2019-05-03T11:53:54.334Z,22.65
2019-05-03T11:59:00.398Z,24.30
2019-05-03T12:04:06.323Z,23.25
2019-05-03T12:09:15.450Z,21.05
2019-05-03T12:14:20.964Z,20.85
2019-05-03T12:19:31.181Z,19.40
2019-05-03T12:24:36.432Z,17.07
2019-05-03T12:29:44.755Z,16.77
2019-05-03T12:34:50.397Z,18.00
2019-05-03T12:39:56.367Z,17.55
2019-05-03T12:45:04.586Z,14.90
2019-05-03T12:50:10.822Z,14.53
2019-05-03T12:55:17.029Z,13.05
2019-05-03T13:00:42.093Z,15.83
2019-05-03T13:05:48.038Z,15.32
2019-05-03T13:10:55.725Z,12.30
2019-05-03T13:16:01.956Z,11.48
2019-05-03T13:21:07.939Z,11.18
2019-05-03T13:26:14.802Z,9.75
2019-05-03T13:31:21.030Z,9.73
2019-05-03T13:36:27.101Z,9.53
2019-05-03T13:41:34.942Z,8.38
2019-05-03T13:46:41.059Z,9.33
2019-05-03T13:51:47.042Z,8.55
2019-05-03T13:56:55.071Z,8.48
2019-05-03T14:02:12.508Z,8.40
2019-05-03T14:07:08.875Z,7.83
2019-05-03T14:12:15.522Z,7.50
2019-05-03T14:17:21.846Z,6.97
2019-05-03T14:22:29.602Z,8.25
2019-05-03T14:27:35.722Z,7.67
2019-05-03T14:32:41.605Z,6.80
2019-05-03T14:37:47.457Z,7.75
2019-05-03T14:42:55.300Z,6.85
2019-05-03T14:48:01.059Z,6.35
2019-05-03T14:53:07.113Z,4.90
2019-05-03T14:58:30.774Z,2.98
2019-05-03T15:03:36.490Z,4.20
2019-05-03T15:08:42.373Z,4.60
2019-05-03T15:13:48.545Z,2.27
2019-05-03T15:18:54.936Z,0.90
2019-05-03T15:24:01.016Z,1.35
2019-05-03T15:29:07.901Z,0.85
2019-05-03T15:34:15.275Z,0.80
2019-05-03T15:39:21.695Z,0.88
2019-05-03T15:44:35.566Z,1.02
2019-05-03T15:49:44.681Z,1.12
2019-05-03T15:54:49.018Z,0.90
2019-05-03T15:59:55.263Z,2.00
2019-05-03T16:05:01.189Z,2.37
2019-05-03T16:10:07.460Z,2.00
2019-05-03T16:15:13.738Z,2.80
2019-05-03T16:20:20.042Z,2.52
2019-05-03T16:25:26.346Z,3.08
2019-05-03T16:30:50.510Z,3.50
2019-05-03T16:35:56.626Z,3.58
2019-05-03T16:41:02.743Z,3.90
2019-05-03T16:46:08.661Z,4.00
2019-05-03T16:51:17.144Z,3.62
2019-05-03T16:56:24.353Z,1.25
2019-05-03T17:01:30.202Z,1.65
2019-05-03T17:06:55.291Z,1.70
2019-05-03T17:12:17.065Z,1.70
2019-05-03T17:17:25.091Z,3.72
2019-05-03T17:22:30.540Z,3.27
2019-05-03T17:27:36.500Z,3.90
2019-05-03T17:32:44.448Z,4.35
2019-05-03T17:37:50.322Z,4.30
2019-05-03T17:43:01.458Z,4.45
2019-05-03T17:48:07.341Z,3.87
2019-05-03T17:53:47.565Z,5.17
2019-05-03T17:59:05.811Z,6.20
2019-05-03T18:04:19.256Z,4.97
2019-05-03T18:09:29.482Z,6.03
2019-05-03T18:14:38.413Z,7.00
2019-05-03T18:19:44.809Z,6.90
2019-05-03T18:24:51.331Z,6.80
2019-05-03T18:29:57.389Z,7.25
2019-05-03T18:35:04.845Z,7.83
2019-05-03T18:40:11.349Z,15.30
2019-05-03T18:45:22.863Z,11.90
2019-05-03T18:50:29.039Z,9.60
2019-05-03T18:55:34.848Z,9.23
2019-05-03T19:00:40.953Z,9.03
2019-05-03T19:05:48.395Z,10.08
2019-05-03T19:10:58.474Z,9.90
2019-05-03T19:16:15.261Z,9.05
2019-05-03T19:21:21.073Z,9.20
2019-05-03T19:26:28.060Z,6.43
2019-05-03T19:31:35.590Z,6.23
2019-05-03T19:36:41.804Z,6.27
2019-05-03T19:41:47.871Z,6.43
2019-05-03T19:46:55.280Z,5.63
2019-05-03T19:52:01.140Z,9.25
2019-05-03T19:57:07.123Z,7.75
2019-05-03T20:02:21.149Z,6.37
2019-05-03T20:07:42.896Z,4.60
2019-05-03T20:12:48.779Z,4.13
2019-05-03T20:17:59.843Z,3.50
2019-05-03T20:23:02.115Z,3.50
2019-05-03T20:28:08.980Z,3.13
2019-05-03T20:33:15.041Z,4.43
2019-05-03T20:38:22.289Z,2.77
2019-05-03T20:44:02.651Z,3.27
2019-05-03T20:49:10.750Z,2.70
2019-05-03T20:54:16.812Z,2.67
2019-05-03T20:59:22.786Z,2.80
2019-05-03T21:04:28.665Z,2.72
2019-05-03T21:09:34.742Z,2.20
2019-05-03T21:14:40.412Z,2.00
2019-05-03T21:19:57.806Z,1.60
2019-05-03T21:25:26.889Z,2.50
2019-05-03T21:30:32.991Z,2.00
2019-05-03T21:35:42.013Z,2.00
2019-05-03T21:40:48.385Z,2.17
2019-05-03T21:46:04.510Z,3.47
2019-05-03T21:51:10.465Z,2.23
2019-05-03T21:56:16.553Z,2.33
2019-05-03T22:01:22.745Z,2.30
2019-05-03T22:06:28.694Z,2.40
2019-05-03T22:11:34.666Z,2.50
2019-05-03T22:16:52.469Z,2.57
2019-05-03T22:22:20.310Z,2.80
2019-05-03T22:27:28.994Z,2.17
2019-05-03T22:32:35.706Z,2.95
2019-05-03T22:37:41.737Z,3.30
2019-05-03T22:42:47.929Z,2.33
2019-05-03T22:47:54.973Z,2.80
2019-05-03T22:53:01.365Z,2.70
2019-05-03T22:58:07.500Z,2.90
2019-05-03T23:03:14.493Z,3.70
2019-05-03T23:08:20.501Z,5.00
2019-05-03T23:13:26.401Z,3.23
2019-05-03T23:18:32.466Z,3.03
2019-05-03T23:23:54.866Z,3.80
2019-05-03T23:29:01.100Z,3.47
2019-05-03T23:34:07.316Z,3.43
2019-05-03T23:39:14.485Z,3.13
2019-05-03T23:44:20.342Z,2.80
2019-05-03T23:49:26.226Z,2.80
2019-05-03T23:54:32.182Z,2.40
2019-05-03T23:59:38.082Z,3.10
